sensor_id;sensor_type;location;lat;lon;timestamp;temperature;humidity
4695;DHT22;2361;49.540;8.390;2022-11-15T00:01:08;12.00;99.90
4695;DHT22;2361;49.540;8.390;2022-11-15T00:03:35;11.90;99.90
4695;DHT22;2361;49.540;8.390;2022-11-15T00:06:03;11.90;99.90
4695;DHT22;2361;49.540;8.390;2022-11-15T00:08:31;11.90;99.90
4695;DHT22;2361;49.540;8.390;2022-11-15T00:11:00;11.90;99.90
4695;DHT22;2361;49.540;8.390;2022-11-15T00:13:28;11.90;99.90
4695;DHT22;2361;49.540;8.390;2022-11-15T00:15:58;11.90;99.90
4695;DHT22;2361;49.540;8.390;2022-11-15T00:18:26;11.80;99.90
4695;DHT22;2361;49.540;8.390;2022-11-15T00:20:54;11.70;99.90
4695;DHT22;2361;49.540;8.390;2022-11-15T00:23:21;11.70;99.90
4695;DHT22;2361;49.540;8.390;2022-11-15T00:25:55;11.60;99.90
4695;DHT22;2361;49.540;8.390;2022-11-15T00:28:24;11.60;99.90
4695;DHT22;2361;49.540;8.390;2022-11-15T00:30:52;11.50;99.90
4695;DHT22;2361;49.540;8.390;2022-11-15T00:33:19;11.50;99.90
4695;DHT22;2361;49.540;8.390;2022-11-15T00:35:46;11.50;99.90
4695;DHT22;2361;49.540;8.390;2022-11-15T00:38:13;11.50;99.90
4695;DHT22;2361;49.540;8.390;2022-11-15T00:40:41;11.50;99.90
4695;DHT22;2361;49.540;8.390;2022-11-15T00:43:08;11.40;99.90
4695;DHT22;2361;49.540;8.390;2022-11-15T00:45:35;11.50;99.90
4695;DHT22;2361;49.540;8.390;2022-11-15T00:48:02;11.50;99.90
4695;DHT22;2361;49.540;8.390;2022-11-15T00:50:29;11.50;99.90
4695;DHT22;2361;49.540;8.390;2022-11-15T00:52:56;11.50;99.90
4695;DHT22;2361;49.540;8.390;2022-11-15T00:55:22;11.60;99.90
4695;DHT22;2361;49.540;8.390;2022-11-15T00:57:49;11.50;99.90
4695;DHT22;2361;49.540;8.390;2022-11-15T01:00:17;11.50;99.90
4695;DHT22;2361;49.540;8.390;2022-11-15T01:02:44;11.40;99.90
4695;DHT22;2361;49.540;8.390;2022-11-15T01:05:10;11.40;99.90
4695;DHT22;2361;49.540;8.390;2022-11-15T01:07:37;11.40;99.90
4695;DHT22;2361;49.540;8.390;2022-11-15T01:10:05;11.40;99.90
4695;DHT22;2361;49.540;8.390;2022-11-15T01:12:33;11.40;99.90
4695;DHT22;2361;49.540;8.390;2022-11-15T01:15:00;11.40;99.90
4695;DHT22;2361;49.540;8.390;2022-11-15T01:17:27;11.40;99.90
4695;DHT22;2361;49.540;8.390;2022-11-15T01:19:54;11.30;99.90
4695;DHT22;2361;49.540;8.390;2022-11-15T01:22:21;11.40;99.90
4695;DHT22;2361;49.540;8.390;2022-11-15T01:24:51;11.40;99.90
4695;DHT22;2361;49.540;8.390;2022-11-15T01:27:18;11.50;99.90
4695;DHT22;2361;49.540;8.390;2022-11-15T01:29:45;11.50;99.90
4695;DHT22;2361;49.540;8.390;2022-11-15T01:32:12;11.50;99.90
4695;DHT22;2361;49.540;8.390;2022-11-15T01:34:39;11.50;99.90
4695;DHT22;2361;49.540;8.390;2022-11-15T01:37:06;11.60;99.90
4695;DHT22;2361;49.540;8.390;2022-11-15T01:39:33;11.60;99.90
4695;DHT22;2361;49.540;8.390;2022-11-15T01:42:00;11.50;99.90
4695;DHT22;2361;49.540;8.390;2022-11-15T01:44:49;11.50;99.90
4695;DHT22;2361;49.540;8.390;2022-11-15T01:47:24;11.50;99.90
4695;DHT22;2361;49.540;8.390;2022-11-15T01:50:09;11.50;99.90
4695;DHT22;2361;49.540;8.390;2022-11-15T01:52:39;11.50;99.90
4695;DHT22;2361;49.540;8.390;2022-11-15T01:55:26;11.60;99.90
4695;DHT22;2361;49.540;8.390;2022-11-15T01:57:59;11.50;99.90
4695;DHT22;2361;49.540;8.390;2022-11-15T02:00:29;11.50;99.90
4695;DHT22;2361;49.540;8.390;2022-11-15T02:02:56;11.50;99.90
4695;DHT22;2361;49.540;8.390;2022-11-15T02:05:23;11.50;99.90
4695;DHT22;2361;49.540;8.390;2022-11-15T02:07:50;11.50;99.90
4695;DHT22;2361;49.540;8.390;2022-11-15T02:10:20;11.50;99.90
4695;DHT22;2361;49.540;8.390;2022-11-15T02:12:49;11.50;99.90
4695;DHT22;2361;49.540;8.390;2022-11-15T02:15:16;11.40;99.90
4695;DHT22;2361;49.540;8.390;2022-11-15T02:35:19;11.40;99.90
4695;DHT22;2361;49.540;8.390;2022-11-15T02:37:57;11.40;99.90
4695;DHT22;2361;49.540;8.390;2022-11-15T02:43:13;11.40;99.90
4695;DHT22;2361;49.540;8.390;2022-11-15T02:46:18;11.50;99.90
4695;DHT22;2361;49.540;8.390;2022-11-15T02:49:14;11.50;99.90
4695;DHT22;2361;49.540;8.390;2022-11-15T02:51:43;11.60;99.90
4695;DHT22;2361;49.540;8.390;2022-11-15T02:54:20;11.60;99.90
4695;DHT22;2361;49.540;8.390;2022-11-15T02:56:50;11.60;99.90
4695;DHT22;2361;49.540;8.390;2022-11-15T03:02:52;11.60;99.90
4695;DHT22;2361;49.540;8.390;2022-11-15T03:06:04;11.70;99.90
4695;DHT22;2361;49.540;8.390;2022-11-15T03:09:04;11.60;99.90
4695;DHT22;2361;49.540;8.390;2022-11-15T03:11:39;11.60;99.90
4695;DHT22;2361;49.540;8.390;2022-11-15T03:14:14;11.60;99.90
4695;DHT22;2361;49.540;8.390;2022-11-15T03:16:58;11.60;99.90
4695;DHT22;2361;49.540;8.390;2022-11-15T03:19:58;11.60;99.90
4695;DHT22;2361;49.540;8.390;2022-11-15T03:22:29;11.70;99.90
4695;DHT22;2361;49.540;8.390;2022-11-15T03:25:00;11.70;99.90
4695;DHT22;2361;49.540;8.390;2022-11-15T03:27:35;11.60;99.90
4695;DHT22;2361;49.540;8.390;2022-11-15T03:30:07;11.70;99.90
4695;DHT22;2361;49.540;8.390;2022-11-15T03:32:40;11.60;99.90
4695;DHT22;2361;49.540;8.390;2022-11-15T03:35:22;11.60;99.90
4695;DHT22;2361;49.540;8.390;2022-11-15T03:38:26;11.60;99.90
4695;DHT22;2361;49.540;8.390;2022-11-15T03:40:59;11.60;99.90
4695;DHT22;2361;49.540;8.390;2022-11-15T03:43:39;11.60;99.90
4695;DHT22;2361;49.540;8.390;2022-11-15T03:46:23;11.60;99.90
4695;DHT22;2361;49.540;8.390;2022-11-15T03:48:59;11.60;99.90
4695;DHT22;2361;49.540;8.390;2022-11-15T03:51:31;11.60;99.90
4695;DHT22;2361;49.540;8.390;2022-11-15T03:53:58;11.60;99.90
4695;DHT22;2361;49.540;8.390;2022-11-15T03:56:25;11.60;99.90
4695;DHT22;2361;49.540;8.390;2022-11-15T03:58:52;11.70;99.90
4695;DHT22;2361;49.540;8.390;2022-11-15T04:01:19;11.70;99.90
4695;DHT22;2361;49.540;8.390;2022-11-15T04:03:46;11.70;99.90
4695;DHT22;2361;49.540;8.390;2022-11-15T04:06:13;11.70;99.90
4695;DHT22;2361;49.540;8.390;2022-11-15T04:08:40;11.60;99.90
4695;DHT22;2361;49.540;8.390;2022-11-15T04:11:07;11.50;99.90
4695;DHT22;2361;49.540;8.390;2022-11-15T04:13:34;11.50;99.90
4695;DHT22;2361;49.540;8.390;2022-11-15T04:16:01;11.50;99.90
4695;DHT22;2361;49.540;8.390;2022-11-15T04:18:27;11.50;99.90
4695;DHT22;2361;49.540;8.390;2022-11-15T04:20:54;11.50;99.90
4695;DHT22;2361;49.540;8.390;2022-11-15T04:23:40;11.60;99.90
4695;DHT22;2361;49.540;8.390;2022-11-15T04:26:25;11.60;99.90
4695;DHT22;2361;49.540;8.390;2022-11-15T04:28:52;11.60;99.90
4695;DHT22;2361;49.540;8.390;2022-11-15T04:31:38;11.60;99.90
4695;DHT22;2361;49.540;8.390;2022-11-15T04:34:04;11.60;99.90
4695;DHT22;2361;49.540;8.390;2022-11-15T04:36:31;11.60;99.90
4695;DHT22;2361;49.540;8.390;2022-11-15T04:39:17;11.50;99.90
4695;DHT22;2361;49.540;8.390;2022-11-15T04:41:44;11.50;99.90
4695;DHT22;2361;49.540;8.390;2022-11-15T04:44:11;11.50;99.90
4695;DHT22;2361;49.540;8.390;2022-11-15T04:46:38;11.40;99.90
4695;DHT22;2361;49.540;8.390;2022-11-15T04:49:04;11.40;99.90
4695;DHT22;2361;49.540;8.390;2022-11-15T04:51:31;11.50;99.90
4695;DHT22;2361;49.540;8.390;2022-11-15T04:53:58;11.40;99.90
4695;DHT22;2361;49.540;8.390;2022-11-15T04:56:25;11.40;99.90
4695;DHT22;2361;49.540;8.390;2022-11-15T04:58:52;11.40;99.90
4695;DHT22;2361;49.540;8.390;2022-11-15T05:01:19;11.40;99.90
4695;DHT22;2361;49.540;8.390;2022-11-15T05:03:46;11.40;99.90
4695;DHT22;2361;49.540;8.390;2022-11-15T05:06:31;11.40;99.90
4695;DHT22;2361;49.540;8.390;2022-11-15T05:08:58;11.40;99.90
4695;DHT22;2361;49.540;8.390;2022-11-15T05:11:26;11.40;99.90
4695;DHT22;2361;49.540;8.390;2022-11-15T05:13:54;11.50;99.90
4695;DHT22;2361;49.540;8.390;2022-11-15T05:16:21;11.50;99.90
4695;DHT22;2361;49.540;8.390;2022-11-15T05:18:53;11.50;99.90
4695;DHT22;2361;49.540;8.390;2022-11-15T05:21:21;11.50;99.90
4695;DHT22;2361;49.540;8.390;2022-11-15T05:23:48;11.50;99.90
4695;DHT22;2361;49.540;8.390;2022-11-15T05:26:17;11.50;99.90
4695;DHT22;2361;49.540;8.390;2022-11-15T05:28:44;11.40;99.90
4695;DHT22;2361;49.540;8.390;2022-11-15T05:31:13;11.40;99.90
4695;DHT22;2361;49.540;8.390;2022-11-15T05:33:42;11.50;99.90
4695;DHT22;2361;49.540;8.390;2022-11-15T05:36:15;11.40;99.90
4695;DHT22;2361;49.540;8.390;2022-11-15T05:38:49;11.30;99.90
4695;DHT22;2361;49.540;8.390;2022-11-15T05:41:22;11.40;99.90
4695;DHT22;2361;49.540;8.390;2022-11-15T05:43:58;11.40;99.90
4695;DHT22;2361;49.540;8.390;2022-11-15T05:46:26;11.30;99.90
4695;DHT22;2361;49.540;8.390;2022-11-15T05:48:53;11.30;99.90
4695;DHT22;2361;49.540;8.390;2022-11-15T05:51:22;11.20;99.90
4695;DHT22;2361;49.540;8.390;2022-11-15T05:53:51;11.20;99.90
4695;DHT22;2361;49.540;8.390;2022-11-15T05:56:18;11.20;99.90
4695;DHT22;2361;49.540;8.390;2022-11-15T05:58:45;11.20;99.90
4695;DHT22;2361;49.540;8.390;2022-11-15T06:01:13;11.20;99.90
4695;DHT22;2361;49.540;8.390;2022-11-15T06:03:39;11.20;99.90
4695;DHT22;2361;49.540;8.390;2022-11-15T06:06:06;11.20;99.90
4695;DHT22;2361;49.540;8.390;2022-11-15T06:08:37;11.10;99.90
4695;DHT22;2361;49.540;8.390;2022-11-15T06:11:06;11.00;99.90
4695;DHT22;2361;49.540;8.390;2022-11-15T06:13:33;11.00;99.90
4695;DHT22;2361;49.540;8.390;2022-11-15T06:16:00;10.90;99.90
4695;DHT22;2361;49.540;8.390;2022-11-15T06:18:27;10.90;99.90
4695;DHT22;2361;49.540;8.390;2022-11-15T06:20:58;10.90;99.90
4695;DHT22;2361;49.540;8.390;2022-11-15T06:23:26;10.90;99.90
4695;DHT22;2361;49.540;8.390;2022-11-15T06:25:58;10.90;99.90
4695;DHT22;2361;49.540;8.390;2022-11-15T06:28:29;11.00;99.90
4695;DHT22;2361;49.540;8.390;2022-11-15T06:31:05;11.00;99.90
4695;DHT22;2361;49.540;8.390;2022-11-15T06:33:34;11.10;99.90
4695;DHT22;2361;49.540;8.390;2022-11-15T06:36:08;11.10;99.90
4695;DHT22;2361;49.540;8.390;2022-11-15T06:38:43;11.10;99.90
4695;DHT22;2361;49.540;8.390;2022-11-15T06:41:12;11.10;99.90
4695;DHT22;2361;49.540;8.390;2022-11-15T06:43:40;11.10;99.90
4695;DHT22;2361;49.540;8.390;2022-11-15T06:46:07;11.00;99.90
4695;DHT22;2361;49.540;8.390;2022-11-15T06:48:35;11.00;99.90
4695;DHT22;2361;49.540;8.390;2022-11-15T06:51:03;11.00;99.90
4695;DHT22;2361;49.540;8.390;2022-11-15T06:53:31;11.00;99.90
4695;DHT22;2361;49.540;8.390;2022-11-15T06:56:01;11.00;99.90
4695;DHT22;2361;49.540;8.390;2022-11-15T06:58:29;11.00;99.90
4695;DHT22;2361;49.540;8.390;2022-11-15T07:01:05;10.90;99.90
4695;DHT22;2361;49.540;8.390;2022-11-15T07:03:35;11.00;99.90
4695;DHT22;2361;49.540;8.390;2022-11-15T07:06:03;11.00;99.90
4695;DHT22;2361;49.540;8.390;2022-11-15T07:08:33;11.10;99.90
4695;DHT22;2361;49.540;8.390;2022-11-15T07:11:02;11.10;99.90
4695;DHT22;2361;49.540;8.390;2022-11-15T07:13:32;11.10;99.90
4695;DHT22;2361;49.540;8.390;2022-11-15T07:16:05;11.20;99.90
4695;DHT22;2361;49.540;8.390;2022-11-15T07:18:39;11.20;99.90
4695;DHT22;2361;49.540;8.390;2022-11-15T07:21:09;11.30;99.90
4695;DHT22;2361;49.540;8.390;2022-11-15T07:23:38;11.30;99.90
4695;DHT22;2361;49.540;8.390;2022-11-15T07:26:06;11.30;99.90
4695;DHT22;2361;49.540;8.390;2022-11-15T07:28:34;11.40;99.90
4695;DHT22;2361;49.540;8.390;2022-11-15T07:31:07;11.50;99.90
4695;DHT22;2361;49.540;8.390;2022-11-15T07:33:35;11.50;99.90
4695;DHT22;2361;49.540;8.390;2022-11-15T07:36:05;11.50;99.90
4695;DHT22;2361;49.540;8.390;2022-11-15T07:38:34;11.60;99.90
4695;DHT22;2361;49.540;8.390;2022-11-15T07:41:06;11.50;99.90
4695;DHT22;2361;49.540;8.390;2022-11-15T07:43:33;11.60;99.90
4695;DHT22;2361;49.540;8.390;2022-11-15T07:46:08;11.50;99.90
4695;DHT22;2361;49.540;8.390;2022-11-15T07:48:37;11.50;99.90
4695;DHT22;2361;49.540;8.390;2022-11-15T07:51:14;11.50;99.90
4695;DHT22;2361;49.540;8.390;2022-11-15T07:53:43;11.50;99.90
4695;DHT22;2361;49.540;8.390;2022-11-15T07:56:11;11.60;99.90
4695;DHT22;2361;49.540;8.390;2022-11-15T07:58:38;11.60;99.90
4695;DHT22;2361;49.540;8.390;2022-11-15T08:01:07;11.60;99.90
4695;DHT22;2361;49.540;8.390;2022-11-15T08:03:36;11.60;99.90
4695;DHT22;2361;49.540;8.390;2022-11-15T08:06:03;11.60;99.90
4695;DHT22;2361;49.540;8.390;2022-11-15T08:08:30;11.60;99.90
4695;DHT22;2361;49.540;8.390;2022-11-15T08:10:58;11.60;99.90
4695;DHT22;2361;49.540;8.390;2022-11-15T08:13:25;11.60;99.90
4695;DHT22;2361;49.540;8.390;2022-11-15T08:15:57;11.70;99.90
4695;DHT22;2361;49.540;8.390;2022-11-15T08:18:27;11.70;99.90
4695;DHT22;2361;49.540;8.390;2022-11-15T08:20:59;11.70;99.90
4695;DHT22;2361;49.540;8.390;2022-11-15T08:23:27;11.60;99.90
4695;DHT22;2361;49.540;8.390;2022-11-15T08:26:00;11.60;99.90
4695;DHT22;2361;49.540;8.390;2022-11-15T08:28:29;11.70;99.90
4695;DHT22;2361;49.540;8.390;2022-11-15T08:30:57;11.60;99.90
4695;DHT22;2361;49.540;8.390;2022-11-15T08:33:24;11.60;99.90
4695;DHT22;2361;49.540;8.390;2022-11-15T08:35:51;11.60;99.90
4695;DHT22;2361;49.540;8.390;2022-11-15T08:38:18;11.60;99.90
4695;DHT22;2361;49.540;8.390;2022-11-15T08:40:45;11.50;99.90
4695;DHT22;2361;49.540;8.390;2022-11-15T08:43:12;11.60;99.90
4695;DHT22;2361;49.540;8.390;2022-11-15T08:45:39;11.60;99.90
4695;DHT22;2361;49.540;8.390;2022-11-15T08:48:06;11.70;99.90
4695;DHT22;2361;49.540;8.390;2022-11-15T08:50:33;11.80;99.90
4695;DHT22;2361;49.540;8.390;2022-11-15T08:53:07;11.80;99.90
4695;DHT22;2361;49.540;8.390;2022-11-15T08:55:38;11.80;99.90
4695;DHT22;2361;49.540;8.390;2022-11-15T08:58:06;11.80;99.90
4695;DHT22;2361;49.540;8.390;2022-11-15T09:00:33;11.80;99.90
4695;DHT22;2361;49.540;8.390;2022-11-15T09:03:04;11.90;99.90
4695;DHT22;2361;49.540;8.390;2022-11-15T09:05:32;12.00;99.90
4695;DHT22;2361;49.540;8.390;2022-11-15T09:07:59;12.00;99.90
4695;DHT22;2361;49.540;8.390;2022-11-15T09:10:26;12.00;99.90
4695;DHT22;2361;49.540;8.390;2022-11-15T09:12:53;12.00;99.90
4695;DHT22;2361;49.540;8.390;2022-11-15T09:15:20;11.90;99.90
4695;DHT22;2361;49.540;8.390;2022-11-15T09:17:47;11.80;99.90
4695;DHT22;2361;49.540;8.390;2022-11-15T09:20:14;11.90;99.90
4695;DHT22;2361;49.540;8.390;2022-11-15T09:22:41;12.00;99.90
4695;DHT22;2361;49.540;8.390;2022-11-15T09:25:09;12.00;99.90
4695;DHT22;2361;49.540;8.390;2022-11-15T09:27:36;12.10;99.90
4695;DHT22;2361;49.540;8.390;2022-11-15T09:30:04;12.20;99.90
4695;DHT22;2361;49.540;8.390;2022-11-15T09:32:31;12.30;99.90
4695;DHT22;2361;49.540;8.390;2022-11-15T09:35:04;12.30;99.90
4695;DHT22;2361;49.540;8.390;2022-11-15T09:37:32;12.30;99.90
4695;DHT22;2361;49.540;8.390;2022-11-15T09:39:59;12.30;99.90
4695;DHT22;2361;49.540;8.390;2022-11-15T09:45:13;12.40;99.90
4695;DHT22;2361;49.540;8.390;2022-11-15T09:50:50;12.40;99.90
4695;DHT22;2361;49.540;8.390;2022-11-15T09:53:26;12.50;99.90
4695;DHT22;2361;49.540;8.390;2022-11-15T09:56:21;12.50;99.90
4695;DHT22;2361;49.540;8.390;2022-11-15T10:04:18;12.90;99.90
4695;DHT22;2361;49.540;8.390;2022-11-15T10:07:02;12.90;99.90
4695;DHT22;2361;49.540;8.390;2022-11-15T10:10:00;12.90;99.90
4695;DHT22;2361;49.540;8.390;2022-11-15T10:12:31;13.00;99.90
4695;DHT22;2361;49.540;8.390;2022-11-15T10:15:11;13.00;99.90
4695;DHT22;2361;49.540;8.390;2022-11-15T10:21:17;12.90;99.90
4695;DHT22;2361;49.540;8.390;2022-11-15T10:23:49;12.90;99.90
4695;DHT22;2361;49.540;8.390;2022-11-15T10:26:17;12.90;99.90
4695;DHT22;2361;49.540;8.390;2022-11-15T10:28:44;12.90;99.90
4695;DHT22;2361;49.540;8.390;2022-11-15T10:31:26;12.90;99.90
4695;DHT22;2361;49.540;8.390;2022-11-15T10:34:14;12.90;99.90
4695;DHT22;2361;49.540;8.390;2022-11-15T10:36:56;12.90;99.90
4695;DHT22;2361;49.540;8.390;2022-11-15T10:39:28;12.90;99.90
4695;DHT22;2361;49.540;8.390;2022-11-15T10:41:56;12.90;99.90
4695;DHT22;2361;49.540;8.390;2022-11-15T10:44:28;12.90;99.90
4695;DHT22;2361;49.540;8.390;2022-11-15T10:49:25;12.80;99.90
4695;DHT22;2361;49.540;8.390;2022-11-15T10:51:58;12.80;99.90
4695;DHT22;2361;49.540;8.390;2022-11-15T10:54:46;12.80;99.90
4695;DHT22;2361;49.540;8.390;2022-11-15T10:57:28;12.80;99.90
4695;DHT22;2361;49.540;8.390;2022-11-15T11:00:00;12.90;99.90
4695;DHT22;2361;49.540;8.390;2022-11-15T11:02:37;12.90;99.90
4695;DHT22;2361;49.540;8.390;2022-11-15T11:05:29;12.90;99.90
4695;DHT22;2361;49.540;8.390;2022-11-15T11:08:18;13.00;99.90
4695;DHT22;2361;49.540;8.390;2022-11-15T11:10:58;13.10;99.90
4695;DHT22;2361;49.540;8.390;2022-11-15T11:13:38;13.20;99.90
4695;DHT22;2361;49.540;8.390;2022-11-15T11:16:41;13.30;99.90
4695;DHT22;2361;49.540;8.390;2022-11-15T11:25:16;13.50;99.90
4695;DHT22;2361;49.540;8.390;2022-11-15T11:36:45;14.00;99.90
4695;DHT22;2361;49.540;8.390;2022-11-15T11:39:43;14.00;99.90
4695;DHT22;2361;49.540;8.390;2022-11-15T11:48:14;14.10;99.90
4695;DHT22;2361;49.540;8.390;2022-11-15T11:50:46;14.20;99.90
4695;DHT22;2361;49.540;8.390;2022-11-15T11:53:39;14.20;99.90
4695;DHT22;2361;49.540;8.390;2022-11-15T11:56:31;14.10;99.90
4695;DHT22;2361;49.540;8.390;2022-11-15T11:59:22;14.20;99.90
4695;DHT22;2361;49.540;8.390;2022-11-15T12:01:52;14.20;99.90
4695;DHT22;2361;49.540;8.390;2022-11-15T12:04:25;14.20;99.90
4695;DHT22;2361;49.540;8.390;2022-11-15T12:07:24;14.30;99.90
4695;DHT22;2361;49.540;8.390;2022-11-15T12:09:59;14.20;99.90
4695;DHT22;2361;49.540;8.390;2022-11-15T12:15:32;14.30;99.90
4695;DHT22;2361;49.540;8.390;2022-11-15T12:18:03;14.30;99.90
4695;DHT22;2361;49.540;8.390;2022-11-15T12:20:36;14.20;99.90
4695;DHT22;2361;49.540;8.390;2022-11-15T12:23:06;14.30;99.90
4695;DHT22;2361;49.540;8.390;2022-11-15T12:28:53;14.30;99.90
4695;DHT22;2361;49.540;8.390;2022-11-15T12:31:49;14.30;99.90
4695;DHT22;2361;49.540;8.390;2022-11-15T12:36:51;14.30;99.90
4695;DHT22;2361;49.540;8.390;2022-11-15T12:39:19;14.20;99.90
4695;DHT22;2361;49.540;8.390;2022-11-15T13:02:36;14.00;99.90
4695;DHT22;2361;49.540;8.390;2022-11-15T13:12:57;14.00;99.90
4695;DHT22;2361;49.540;8.390;2022-11-15T13:15:34;14.10;99.90
4695;DHT22;2361;49.540;8.390;2022-11-15T13:20:59;14.10;99.90
4695;DHT22;2361;49.540;8.390;2022-11-15T13:23:28;14.20;99.90
4695;DHT22;2361;49.540;8.390;2022-11-15T13:26:13;14.20;99.90
4695;DHT22;2361;49.540;8.390;2022-11-15T13:28:45;14.20;99.90
4695;DHT22;2361;49.540;8.390;2022-11-15T13:31:30;14.20;99.90
4695;DHT22;2361;49.540;8.390;2022-11-15T13:34:29;14.20;99.90
4695;DHT22;2361;49.540;8.390;2022-11-15T13:37:28;14.20;99.90
4695;DHT22;2361;49.540;8.390;2022-11-15T13:40:15;14.20;99.90
4695;DHT22;2361;49.540;8.390;2022-11-15T13:42:46;14.20;99.90
4695;DHT22;2361;49.540;8.390;2022-11-15T13:45:15;14.10;99.90
4695;DHT22;2361;49.540;8.390;2022-11-15T13:47:43;14.10;99.90
4695;DHT22;2361;49.540;8.390;2022-11-15T13:50:14;14.20;99.90
4695;DHT22;2361;49.540;8.390;2022-11-15T13:52:43;14.10;99.90
4695;DHT22;2361;49.540;8.390;2022-11-15T13:58:00;14.10;99.90
4695;DHT22;2361;49.540;8.390;2022-11-15T14:05:42;14.10;99.90
4695;DHT22;2361;49.540;8.390;2022-11-15T14:10:42;14.20;99.90
4695;DHT22;2361;49.540;8.390;2022-11-15T14:13:30;14.20;99.90
4695;DHT22;2361;49.540;8.390;2022-11-15T14:16:19;14.10;99.90
4695;DHT22;2361;49.540;8.390;2022-11-15T14:18:49;14.10;99.90
4695;DHT22;2361;49.540;8.390;2022-11-15T14:21:18;14.00;99.90
4695;DHT22;2361;49.540;8.390;2022-11-15T14:23:46;13.90;99.90
4695;DHT22;2361;49.540;8.390;2022-11-15T14:26:34;14.00;99.90
4695;DHT22;2361;49.540;8.390;2022-11-15T14:29:24;14.00;99.90
4695;DHT22;2361;49.540;8.390;2022-11-15T14:31:53;14.00;99.90
4695;DHT22;2361;49.540;8.390;2022-11-15T14:34:20;13.90;99.90
4695;DHT22;2361;49.540;8.390;2022-11-15T14:36:48;13.90;99.90
4695;DHT22;2361;49.540;8.390;2022-11-15T14:39:15;13.90;99.90
4695;DHT22;2361;49.540;8.390;2022-11-15T14:41:42;13.90;99.90
4695;DHT22;2361;49.540;8.390;2022-11-15T14:44:10;13.90;99.90
4695;DHT22;2361;49.540;8.390;2022-11-15T14:46:38;13.90;99.90
4695;DHT22;2361;49.540;8.390;2022-11-15T14:49:05;13.90;99.90
4695;DHT22;2361;49.540;8.390;2022-11-15T14:51:32;13.90;99.90
4695;DHT22;2361;49.540;8.390;2022-11-15T14:54:00;14.00;99.90
4695;DHT22;2361;49.540;8.390;2022-11-15T14:56:27;13.90;99.90
4695;DHT22;2361;49.540;8.390;2022-11-15T14:58:54;13.90;99.90
4695;DHT22;2361;49.540;8.390;2022-11-15T15:01:24;13.80;99.90
4695;DHT22;2361;49.540;8.390;2022-11-15T15:03:53;13.70;99.90
4695;DHT22;2361;49.540;8.390;2022-11-15T15:06:25;13.80;99.90
4695;DHT22;2361;49.540;8.390;2022-11-15T15:08:52;13.80;99.90
4695;DHT22;2361;49.540;8.390;2022-11-15T15:11:27;13.70;99.90
4695;DHT22;2361;49.540;8.390;2022-11-15T15:13:55;13.70;99.90
4695;DHT22;2361;49.540;8.390;2022-11-15T15:16:24;13.70;99.90
4695;DHT22;2361;49.540;8.390;2022-11-15T15:18:51;13.70;99.90
4695;DHT22;2361;49.540;8.390;2022-11-15T15:21:22;13.70;99.90
4695;DHT22;2361;49.540;8.390;2022-11-15T15:23:51;13.70;99.90
4695;DHT22;2361;49.540;8.390;2022-11-15T15:26:21;13.70;99.90
4695;DHT22;2361;49.540;8.390;2022-11-15T15:28:49;13.70;99.90
4695;DHT22;2361;49.540;8.390;2022-11-15T15:31:17;13.70;99.90
4695;DHT22;2361;49.540;8.390;2022-11-15T15:33:44;13.70;99.90
4695;DHT22;2361;49.540;8.390;2022-11-15T15:36:13;13.70;99.90
4695;DHT22;2361;49.540;8.390;2022-11-15T15:38:41;13.60;99.90
4695;DHT22;2361;49.540;8.390;2022-11-15T15:41:12;13.60;99.90
4695;DHT22;2361;49.540;8.390;2022-11-15T15:43:40;13.60;99.90
4695;DHT22;2361;49.540;8.390;2022-11-15T15:46:12;13.60;99.90
4695;DHT22;2361;49.540;8.390;2022-11-15T15:48:40;13.60;99.90
4695;DHT22;2361;49.540;8.390;2022-11-15T15:51:08;13.60;99.90
4695;DHT22;2361;49.540;8.390;2022-11-15T15:53:44;13.60;99.90
4695;DHT22;2361;49.540;8.390;2022-11-15T15:56:11;13.50;99.90
4695;DHT22;2361;49.540;8.390;2022-11-15T15:58:38;13.50;99.90
4695;DHT22;2361;49.540;8.390;2022-11-15T16:01:05;13.50;99.90
4695;DHT22;2361;49.540;8.390;2022-11-15T16:03:32;13.50;99.90
4695;DHT22;2361;49.540;8.390;2022-11-15T16:05:59;13.50;99.90
4695;DHT22;2361;49.540;8.390;2022-11-15T16:08:26;13.50;99.90
4695;DHT22;2361;49.540;8.390;2022-11-15T16:10:57;13.50;99.90
4695;DHT22;2361;49.540;8.390;2022-11-15T16:13:24;13.50;99.90
4695;DHT22;2361;49.540;8.390;2022-11-15T16:15:53;13.40;99.90
4695;DHT22;2361;49.540;8.390;2022-11-15T16:18:21;13.40;99.90
4695;DHT22;2361;49.540;8.390;2022-11-15T16:20:49;13.40;99.90
4695;DHT22;2361;49.540;8.390;2022-11-15T16:23:19;13.40;99.90
4695;DHT22;2361;49.540;8.390;2022-11-15T16:25:52;13.40;99.90
4695;DHT22;2361;49.540;8.390;2022-11-15T16:28:25;13.40;99.90
4695;DHT22;2361;49.540;8.390;2022-11-15T16:31:09;13.40;99.90
4695;DHT22;2361;49.540;8.390;2022-11-15T16:33:37;13.40;99.90
4695;DHT22;2361;49.540;8.390;2022-11-15T16:36:06;13.50;99.90
4695;DHT22;2361;49.540;8.390;2022-11-15T16:38:40;13.40;99.90
4695;DHT22;2361;49.540;8.390;2022-11-15T16:41:07;13.40;99.90
4695;DHT22;2361;49.540;8.390;2022-11-15T16:43:34;13.30;99.90
4695;DHT22;2361;49.540;8.390;2022-11-15T16:46:18;13.30;99.90
4695;DHT22;2361;49.540;8.390;2022-11-15T16:48:46;13.30;99.90
4695;DHT22;2361;49.540;8.390;2022-11-15T16:51:14;13.20;99.90
4695;DHT22;2361;49.540;8.390;2022-11-15T16:53:42;13.20;99.90
4695;DHT22;2361;49.540;8.390;2022-11-15T16:56:25;13.20;99.90
4695;DHT22;2361;49.540;8.390;2022-11-15T16:58:56;13.20;99.90
4695;DHT22;2361;49.540;8.390;2022-11-15T17:03:53;13.20;99.90
4695;DHT22;2361;49.540;8.390;2022-11-15T17:06:21;13.20;99.90
4695;DHT22;2361;49.540;8.390;2022-11-15T17:08:49;13.20;99.90
4695;DHT22;2361;49.540;8.390;2022-11-15T17:11:18;13.20;99.90
4695;DHT22;2361;49.540;8.390;2022-11-15T17:13:47;13.10;99.90
4695;DHT22;2361;49.540;8.390;2022-11-15T17:16:16;13.10;99.90
4695;DHT22;2361;49.540;8.390;2022-11-15T17:18:44;13.10;99.90
4695;DHT22;2361;49.540;8.390;2022-11-15T17:21:13;13.10;99.90
4695;DHT22;2361;49.540;8.390;2022-11-15T17:23:42;13.10;99.90
4695;DHT22;2361;49.540;8.390;2022-11-15T17:26:11;13.10;99.90
4695;DHT22;2361;49.540;8.390;2022-11-15T17:28:57;13.10;99.90
4695;DHT22;2361;49.540;8.390;2022-11-15T17:31:26;13.00;99.90
4695;DHT22;2361;49.540;8.390;2022-11-15T17:33:56;13.00;99.90
4695;DHT22;2361;49.540;8.390;2022-11-15T17:36:23;13.10;99.90
4695;DHT22;2361;49.540;8.390;2022-11-15T17:38:50;13.00;99.90
4695;DHT22;2361;49.540;8.390;2022-11-15T17:41:23;13.00;99.90
4695;DHT22;2361;49.540;8.390;2022-11-15T17:43:50;13.00;99.90
4695;DHT22;2361;49.540;8.390;2022-11-15T17:46:19;13.00;99.90
4695;DHT22;2361;49.540;8.390;2022-11-15T17:48:47;12.90;99.90
4695;DHT22;2361;49.540;8.390;2022-11-15T17:51:16;12.90;99.90
4695;DHT22;2361;49.540;8.390;2022-11-15T17:53:45;12.90;99.90
4695;DHT22;2361;49.540;8.390;2022-11-15T17:56:18;12.90;99.90
4695;DHT22;2361;49.540;8.390;2022-11-15T17:58:54;12.90;99.90
4695;DHT22;2361;49.540;8.390;2022-11-15T18:01:31;12.90;99.90
4695;DHT22;2361;49.540;8.390;2022-11-15T18:04:01;12.90;99.90
4695;DHT22;2361;49.540;8.390;2022-11-15T18:06:31;13.00;99.90
4695;DHT22;2361;49.540;8.390;2022-11-15T18:09:00;13.00;99.90
4695;DHT22;2361;49.540;8.390;2022-11-15T18:11:33;13.00;99.90
4695;DHT22;2361;49.540;8.390;2022-11-15T18:14:03;13.00;99.90
4695;DHT22;2361;49.540;8.390;2022-11-15T18:16:34;13.00;99.90
4695;DHT22;2361;49.540;8.390;2022-11-15T18:19:03;13.00;99.90
4695;DHT22;2361;49.540;8.390;2022-11-15T18:21:41;13.00;99.90
4695;DHT22;2361;49.540;8.390;2022-11-15T18:24:26;12.90;99.90
4695;DHT22;2361;49.540;8.390;2022-11-15T18:26:56;12.90;99.90